Letham, United Kingdom
Current Conditions -  °F | °C
As of 8:20 AM on Tuesday 21 Oct 2014 (Local Time) from EGPN Reporting Station
Scattered Clouds Scattered Clouds  
Wind Chill: 40°   Ceiling: Unl
Heat Index: 48°   Visibility: 6mi
Dew Point: 39°   Wind: 24mph
Humidity: 71%   Direction: 280°W
Pressure: 29.12"   Gusts: 38mph
Location:  56.62°N, 2.77°W
Report Text: EGPN 210720Z 28021G33KT 250V310 9999 FEW012 SCT030 09/04 Q0986
Loading
Personal Weather Stations






























Interactive Weather Map New forecast layout! Learn more

10-Day Weather Forecast

Advertisements
Track Severe Weather on mobile